CET,Max TemperatureF,Mean TemperatureF,Min TemperatureF,Max Dew PointF,MeanDew PointF,Min DewpointF,Max Humidity, Mean Humidity, Min Humidity, Max Sea Level PressureIn, Mean Sea Level PressureIn, Min Sea Level PressureIn, Max VisibilityMiles, Mean VisibilityMiles, Min VisibilityMiles, Max Wind SpeedMPH, Mean Wind SpeedMPH, Max Gust SpeedMPH,PrecipitationIn, CloudCover, Events, WindDirDegrees
2012-10-1,87,81,75,72,65,48,89,61,29,30.06,30.02,29.98,6,6,6,23,13,26,0.00,2,,198
2012-10-2,82,78,73,66,63,59,78,64,48,30.12,30.07,30.04,6,6,6,21,13,32,0.00,3,,9
2012-10-3,78,74,69,63,61,59,73,63,51,30.12,30.10,30.09,6,6,6,18,13,,0.00,3,,1
2012-10-4,78,74,69,63,61,57,73,64,51,30.09,30.06,30.04,6,6,6,18,12,,0.00,2,,348
2012-10-5,77,70,64,63,57,43,78,61,45,30.12,30.10,30.06,,,,18,11,,0.00,,,9
2012-10-6,78,69,60,61,51,36,64,50,29,30.15,30.13,30.09,6,6,6,14,7,,0.00,1,,2
2012-10-7,84,75,66,61,48,36,65,39,20,30.09,30.02,29.98,6,6,6,18,11,,0.00,1,,3
2012-10-8,80,76,69,68,64,57,78,67,47,29.98,29.94,29.92,6,6,6,14,11,,0.00,2,,7
2012-10-9,80,74,69,64,62,59,73,62,51,29.95,29.91,29.86,6,6,6,13,6,,0.00,2,,8
2012-10-10,80,76,71,66,64,63,78,67,58,29.86,29.83,29.80,6,6,6,16,9,,0.00,3,,9
2012-10-11,82,76,69,64,58,54,78,56,42,29.92,29.87,29.83,6,6,6,13,7,,0.00,2,,17
2012-10-12,80,74,68,70,63,57,83,70,58,29.95,29.91,29.86,6,6,3,17,7,34,0.00,4,Rain-Thunderstorm,99
2012-10-13,77,72,66,68,65,61,94,81,61,29.95,29.90,29.83,6,6,6,14,6,,0.00,4,Rain-Thunderstorm,86
2012-10-14,78,71,64,61,58,54,78,61,42,29.86,29.84,29.80,6,6,6,17,10,,0.00,2,Thunderstorm,4
2012-10-15,77,70,64,66,62,57,83,69,61,29.86,29.84,29.80,6,6,6,25,7,,0.00,4,Rain,183
2012-10-16,77,72,66,68,62,55,88,74,61,30.12,29.96,29.83,6,6,4,20,13,29,0.00,3,Rain-Thunderstorm,14
2012-10-17,75,68,62,64,59,55,88,72,53,30.18,30.15,30.12,6,6,6,9,5,,0.00,1,,10
2012-10-18,77,70,62,64,61,57,88,71,54,30.18,30.13,30.09,6,6,6,15,8,,0.00,1,,178
2012-10-19,77,72,66,64,62,55,78,71,61,30.18,30.14,30.12,6,6,6,12,8,,0.00,1,,171
2012-10-20,75,70,62,64,62,59,88,78,69,30.15,30.11,30.09,6,6,6,10,6,,0.00,2,,150
2012-10-21,75,67,59,64,61,52,88,79,69,30.06,30.04,30.01,6,6,6,10,7,,0.00,1,,152
2012-10-22,80,70,60,66,60,48,83,70,45,30.04,30.02,29.98,6,6,6,12,7,,0.00,1,,57
2012-10-23,77,70,62,63,57,50,69,62,47,30.04,30.03,30.01,6,6,6,13,7,,0.00,1,,155
2012-10-24,75,68,62,63,59,55,82,70,60,30.01,29.98,29.95,6,6,6,16,8,,0.00,2,Thunderstorm,172
2012-10-25,69,66,62,63,60,55,88,79,68,29.95,29.91,29.89,6,6,6,12,7,24,0.00,3,Rain,150
2012-10-26,75,68,62,64,61,54,82,72,57,29.89,29.82,29.74,6,6,6,17,9,,0.00,3,,161
2012-10-27,78,76,73,68,65,61,83,70,54,29.62,29.54,29.44,6,6,6,18,12,34,0.00,3,,158
2012-10-28,78,71,64,63,55,46,73,59,50,29.77,29.63,29.53,6,6,6,20,9,28,0.00,4,,26
2012-10-29,69,63,57,54,47,39,88,59,33,29.89,29.82,29.77,6,6,5,17,10,26,0.00,4,Rain,346
2012-10-30,66,60,55,54,48,41,82,62,46,29.95,29.90,29.89,6,6,6,6,4,,0.00,3,,37
2012-10-31,71,66,62,66,60,52,94,77,60,29.80,29.66,29.53,6,6,3,20,13,37,0.00,5,Rain,150